createdAt,value
2022-11-17T00:00:35.024Z,95.30
2022-11-17T00:03:06.377Z,95.40
2022-11-17T00:05:37.940Z,95.30
2022-11-17T00:08:08.701Z,95.40
2022-11-17T00:10:39.575Z,95.30
2022-11-17T00:13:30.404Z,95.30
2022-11-17T00:16:01.042Z,95.30
2022-11-17T00:18:49.755Z,95.30
2022-11-17T00:21:21.757Z,95.20
2022-11-17T00:23:52.487Z,95.40
2022-11-17T00:26:31.009Z,95.30
2022-11-17T00:29:04.052Z,95.40
2022-11-17T00:31:54.868Z,95.50
2022-11-17T00:34:26.032Z,95.40
2022-11-17T00:36:56.984Z,95.50
2022-11-17T00:39:27.534Z,95.50
2022-11-17T00:41:58.585Z,95.40
2022-11-17T00:44:29.373Z,95.60
2022-11-17T00:46:59.884Z,95.40
2022-11-17T00:49:30.666Z,95.70
2022-11-17T00:52:01.338Z,95.70
2022-11-17T00:54:31.940Z,95.60
2022-11-17T00:57:02.920Z,95.80
2022-11-17T00:59:33.754Z,95.80
2022-11-17T01:02:24.168Z,95.80
2022-11-17T01:04:54.814Z,95.70
2022-11-17T01:07:25.750Z,95.80
2022-11-17T01:09:57.965Z,95.80
2022-11-17T01:12:28.734Z,95.80
2022-11-17T01:15:19.416Z,95.80
2022-11-17T01:17:50.008Z,95.80
2022-11-17T01:23:04.310Z,95.70
2022-11-17T01:25:34.843Z,95.80
2022-11-17T01:28:05.601Z,95.90
2022-11-17T01:30:36.479Z,95.80
2022-11-17T01:33:07.155Z,95.80
2022-11-17T01:35:37.809Z,95.90
2022-11-17T01:38:08.254Z,95.80
2022-11-17T01:40:38.682Z,95.80
2022-11-17T01:43:15.839Z,95.80
2022-11-17T01:48:36.150Z,95.80
2022-11-17T01:51:06.912Z,95.80
2022-11-17T01:53:37.849Z,96.00
2022-11-17T01:56:14.032Z,96.00
2022-11-17T02:01:36.078Z,95.90
2022-11-17T02:04:06.632Z,96.00
2022-11-17T02:06:39.465Z,96.30
2022-11-17T02:09:10.994Z,96.30
2022-11-17T02:11:43.252Z,96.20
2022-11-17T02:14:14.527Z,96.40
2022-11-17T02:16:45.231Z,96.60
2022-11-17T02:19:18.471Z,96.30
2022-11-17T02:22:25.382Z,96.30
2022-11-17T02:25:27.178Z,96.50
2022-11-17T02:28:23.244Z,96.40
2022-11-17T02:31:19.508Z,96.20
2022-11-17T02:33:58.889Z,96.30
2022-11-17T02:36:53.313Z,96.20
2022-11-17T02:39:57.480Z,96.20
2022-11-17T02:43:09.580Z,96.50
2022-11-17T02:45:53.704Z,96.60
2022-11-17T02:48:33.877Z,96.50
2022-11-17T02:51:06.580Z,96.50
2022-11-17T02:53:37.673Z,97.00
2022-11-17T02:56:09.825Z,96.80
2022-11-17T02:58:40.439Z,96.40
2022-11-17T03:01:26.101Z,96.60
2022-11-17T03:04:23.967Z,96.60
2022-11-17T03:07:18.528Z,96.50
2022-11-17T03:09:59.941Z,96.60
2022-11-17T03:12:45.663Z,96.50
2022-11-17T03:15:29.296Z,96.30
2022-11-17T03:18:20.712Z,96.40
2022-11-17T03:21:47.020Z,96.40
2022-11-17T03:24:26.321Z,97.20
2022-11-17T03:27:10.585Z,97.00
2022-11-17T03:29:44.806Z,96.60
2022-11-17T03:32:41.150Z,96.60
2022-11-17T03:35:16.106Z,96.70
2022-11-17T03:37:55.867Z,96.60
2022-11-17T03:40:32.127Z,96.50
2022-11-17T03:43:07.777Z,96.60
2022-11-17T03:45:42.232Z,96.50
2022-11-17T03:48:19.429Z,96.40
2022-11-17T03:51:22.634Z,96.50
2022-11-17T03:53:54.323Z,96.40
2022-11-17T03:56:30.830Z,96.80
2022-11-17T03:59:06.224Z,96.40
2022-11-17T04:01:38.535Z,96.60
2022-11-17T04:04:09.262Z,96.60
2022-11-17T04:06:40.074Z,96.70
2022-11-17T04:09:10.860Z,97.10
2022-11-17T04:11:59.349Z,96.60
2022-11-17T04:14:48.118Z,96.50
2022-11-17T04:17:18.961Z,96.90
2022-11-17T04:19:49.945Z,96.60
2022-11-17T04:22:20.216Z,96.50
2022-11-17T04:24:50.750Z,96.50
2022-11-17T04:27:39.339Z,96.40
2022-11-17T04:30:31.672Z,96.40
2022-11-17T04:36:30.401Z,96.40
2022-11-17T04:39:02.214Z,96.40
2022-11-17T04:41:51.926Z,96.60
2022-11-17T04:44:24.577Z,96.80
2022-11-17T04:46:56.536Z,96.50
2022-11-17T04:49:28.363Z,96.60
2022-11-17T04:51:58.850Z,96.60
2022-11-17T04:54:29.633Z,96.60
2022-11-17T04:57:00.298Z,96.60
2022-11-17T04:59:50.759Z,96.50
2022-11-17T05:05:05.356Z,96.70
2022-11-17T05:07:36.202Z,97.30
2022-11-17T05:10:07.213Z,97.00
2022-11-17T05:12:55.898Z,97.00
2022-11-17T05:15:46.229Z,96.80
2022-11-17T05:18:16.713Z,96.90
2022-11-17T05:20:47.370Z,96.70
2022-11-17T05:23:36.344Z,96.70
2022-11-17T05:26:28.986Z,96.60
2022-11-17T05:29:00.750Z,96.50
2022-11-17T05:31:31.785Z,96.80
2022-11-17T05:34:03.269Z,96.50
2022-11-17T05:36:33.926Z,96.50
2022-11-17T05:39:05.032Z,96.60
2022-11-17T05:41:36.170Z,96.60
2022-11-17T05:44:07.062Z,96.60
2022-11-17T05:46:37.529Z,96.90
2022-11-17T05:49:08.047Z,96.80
2022-11-17T05:51:39.526Z,96.70
2022-11-17T05:54:10.165Z,96.70
2022-11-17T05:56:59.131Z,96.80
2022-11-17T05:59:47.099Z,96.80
2022-11-17T06:02:39.819Z,96.90
2022-11-17T06:05:14.376Z,96.60
2022-11-17T06:07:48.181Z,96.70
2022-11-17T06:10:19.234Z,96.60
2022-11-17T06:12:50.095Z,97.00
2022-11-17T06:15:20.836Z,97.10
2022-11-17T06:18:09.882Z,97.60
2022-11-17T06:20:44.654Z,97.10
2022-11-17T06:23:15.263Z,97.30
2022-11-17T06:25:46.552Z,97.10
2022-11-17T06:31:05.047Z,97.00
2022-11-17T06:33:39.414Z,96.80
2022-11-17T06:36:10.522Z,96.70
2022-11-17T06:38:41.224Z,96.80
2022-11-17T06:41:12.215Z,96.80
2022-11-17T06:43:42.845Z,96.80
2022-11-17T06:46:13.419Z,97.30
2022-11-17T06:48:44.142Z,96.80
2022-11-17T06:51:14.804Z,96.80
2022-11-17T06:54:07.739Z,96.70
2022-11-17T06:56:38.492Z,96.70
2022-11-17T06:59:09.191Z,96.70
2022-11-17T07:01:43.818Z,96.60
2022-11-17T07:04:15.662Z,96.60
2022-11-17T07:06:49.764Z,96.50
2022-11-17T07:09:26.248Z,96.50
2022-11-17T07:11:56.826Z,96.50
2022-11-17T07:14:27.255Z,96.50
2022-11-17T07:16:57.777Z,96.50
2022-11-17T07:19:28.719Z,96.60
2022-11-17T07:22:02.841Z,96.40
2022-11-17T07:24:34.477Z,96.40
2022-11-17T07:27:06.106Z,96.40
2022-11-17T07:29:36.680Z,96.30
2022-11-17T07:32:07.407Z,96.40
2022-11-17T07:34:38.064Z,96.40
2022-11-17T07:37:10.202Z,96.30
2022-11-17T07:39:40.998Z,96.30
2022-11-17T07:42:32.471Z,96.30
2022-11-17T07:45:04.446Z,96.20
2022-11-17T07:47:35.606Z,96.20
2022-11-17T07:50:07.034Z,96.20
2022-11-17T07:52:41.389Z,96.50
2022-11-17T07:55:12.627Z,96.20
2022-11-17T07:57:43.577Z,96.40
2022-11-17T08:00:15.519Z,96.20
2022-11-17T08:02:46.303Z,96.10
2022-11-17T08:05:18.878Z,96.20
2022-11-17T08:07:57.402Z,96.10
2022-11-17T08:10:29.466Z,96.20
2022-11-17T08:13:04.837Z,96.20
2022-11-17T08:15:35.809Z,96.20
2022-11-17T08:18:07.792Z,96.40
2022-11-17T08:20:38.760Z,96.20
2022-11-17T08:23:09.869Z,96.20
2022-11-17T08:25:41.088Z,96.20
2022-11-17T08:28:11.848Z,96.20
2022-11-17T08:30:42.623Z,96.20
2022-11-17T08:33:20.295Z,96.20
2022-11-17T08:35:50.995Z,96.30
2022-11-17T08:38:24.882Z,96.20
2022-11-17T08:43:47.070Z,96.10
2022-11-17T08:46:17.586Z,96.20
2022-11-17T08:51:57.468Z,96.10
2022-11-17T08:54:28.314Z,96.20
2022-11-17T08:57:02.507Z,96.10
2022-11-17T08:59:36.319Z,96.10
2022-11-17T09:02:28.081Z,96.10
2022-11-17T09:04:59.148Z,96.00
2022-11-17T09:07:34.654Z,96.10
2022-11-17T09:10:08.702Z,96.00
2022-11-17T09:12:41.270Z,96.00
2022-11-17T09:15:12.844Z,96.20
2022-11-17T09:17:48.897Z,96.00
2022-11-17T09:20:21.468Z,96.20
2022-11-17T09:22:55.177Z,96.10
2022-11-17T09:25:26.302Z,96.10
2022-11-17T09:27:57.537Z,96.00
2022-11-17T09:30:29.554Z,96.00
2022-11-17T09:33:03.715Z,96.10
2022-11-17T09:35:34.545Z,96.10
2022-11-17T09:38:06.331Z,96.00
2022-11-17T09:40:38.133Z,96.00
2022-11-17T09:43:21.277Z,96.10
2022-11-17T09:45:54.708Z,96.10
2022-11-17T09:48:45.871Z,95.90
2022-11-17T09:51:20.823Z,96.00
2022-11-17T09:54:01.578Z,96.00
2022-11-17T09:56:33.634Z,96.00
2022-11-17T09:59:06.752Z,95.80
2022-11-17T10:01:38.283Z,95.90
2022-11-17T10:04:15.125Z,95.90
2022-11-17T10:06:50.476Z,95.80
2022-11-17T10:09:50.403Z,95.60
2022-11-17T10:12:25.817Z,95.80
2022-11-17T10:15:35.148Z,95.70
2022-11-17T10:18:28.304Z,95.70
2022-11-17T10:20:59.797Z,95.60
2022-11-17T10:23:47.002Z,95.70
2022-11-17T10:26:19.868Z,95.60
2022-11-17T10:29:08.798Z,95.40
2022-11-17T10:31:55.349Z,95.70
2022-11-17T10:34:41.795Z,95.60
2022-11-17T10:37:14.969Z,95.50
2022-11-17T10:39:45.918Z,95.50
2022-11-17T10:42:19.650Z,95.60
2022-11-17T10:47:50.839Z,95.40
2022-11-17T10:50:30.573Z,95.50
2022-11-17T10:53:25.150Z,95.40
2022-11-17T10:56:16.673Z,95.40
2022-11-17T10:59:14.928Z,95.50
2022-11-17T11:01:48.835Z,95.40
2022-11-17T11:04:38.390Z,95.40
2022-11-17T11:07:19.088Z,95.50
2022-11-17T11:09:55.421Z,95.40
2022-11-17T11:13:01.000Z,95.40
2022-11-17T11:15:36.870Z,95.40
2022-11-17T11:18:19.121Z,95.30
2022-11-17T11:21:18.944Z,95.30
2022-11-17T11:24:11.851Z,95.30
2022-11-17T11:27:11.094Z,95.30
2022-11-17T11:30:03.618Z,95.20
2022-11-17T11:32:42.705Z,95.20
2022-11-17T11:35:39.129Z,95.20
2022-11-17T11:38:32.923Z,95.20
2022-11-17T11:41:51.192Z,95.30
2022-11-17T11:44:49.284Z,95.10
2022-11-17T11:47:31.846Z,95.10
2022-11-17T11:50:23.492Z,95.10
2022-11-17T11:53:30.062Z,95.10
2022-11-17T11:56:26.685Z,95.10
2022-11-17T11:59:11.524Z,95.00
2022-11-17T12:01:55.274Z,95.00
2022-11-17T12:04:37.664Z,94.90
2022-11-17T12:07:37.765Z,95.00
2022-11-17T12:10:25.860Z,95.00
2022-11-17T12:12:56.798Z,95.00
2022-11-17T12:15:27.900Z,95.00
2022-11-17T12:18:05.305Z,95.10
2022-11-17T12:20:45.782Z,95.00
2022-11-17T12:23:19.170Z,95.00
2022-11-17T12:25:58.327Z,94.90
2022-11-17T12:28:33.269Z,95.10
2022-11-17T12:31:32.866Z,94.90
2022-11-17T12:34:03.663Z,94.90
2022-11-17T12:36:40.596Z,94.90
2022-11-17T12:39:49.050Z,94.80
2022-11-17T12:42:23.938Z,94.90
2022-11-17T12:45:04.532Z,94.80
2022-11-17T12:47:42.965Z,94.80
2022-11-17T12:50:21.236Z,94.80
2022-11-17T12:53:20.974Z,94.90
2022-11-17T12:56:16.033Z,95.00
2022-11-17T12:59:03.728Z,94.80
2022-11-17T13:01:54.545Z,94.90
2022-11-17T13:04:49.161Z,94.80
2022-11-17T13:07:26.836Z,94.80
2022-11-17T13:10:11.713Z,94.70
2022-11-17T13:12:42.277Z,94.70
2022-11-17T13:15:34.342Z,94.70
2022-11-17T13:18:10.392Z,94.80
2022-11-17T13:20:41.635Z,94.70
2022-11-17T13:23:23.326Z,94.60
2022-11-17T13:26:24.462Z,94.60
2022-11-17T13:29:17.556Z,94.70
2022-11-17T13:31:49.343Z,94.60
2022-11-17T13:34:23.407Z,94.70
2022-11-17T13:37:03.351Z,94.60
2022-11-17T13:39:33.828Z,94.50
2022-11-17T13:42:18.546Z,94.60
2022-11-17T13:44:49.728Z,94.60
2022-11-17T13:47:46.884Z,94.60
2022-11-17T13:50:45.528Z,94.50
2022-11-17T13:53:28.745Z,94.50
2022-11-17T13:56:01.515Z,94.60
2022-11-17T13:58:46.319Z,94.50
2022-11-17T14:01:29.789Z,94.40
2022-11-17T14:04:39.691Z,94.60
2022-11-17T14:07:16.286Z,94.40
2022-11-17T14:09:51.758Z,94.50
2022-11-17T14:12:23.113Z,94.50
2022-11-17T14:14:53.836Z,94.50
2022-11-17T14:17:54.660Z,94.50
2022-11-17T14:20:28.127Z,94.50
2022-11-17T14:23:12.409Z,94.50
2022-11-17T14:25:45.382Z,94.40
2022-11-17T14:28:23.468Z,94.40
2022-11-17T14:30:57.566Z,94.40
2022-11-17T14:33:28.174Z,94.40
2022-11-17T14:36:03.615Z,94.50
2022-11-17T14:38:38.307Z,94.50
2022-11-17T14:41:31.110Z,94.50
2022-11-17T14:44:04.436Z,94.40
2022-11-17T14:46:35.576Z,94.40
2022-11-17T14:49:09.059Z,94.80
2022-11-17T14:52:00.787Z,94.50
2022-11-17T14:54:31.598Z,94.50
2022-11-17T14:57:28.753Z,94.70
2022-11-17T15:00:02.510Z,94.40
2022-11-17T15:02:33.935Z,94.50
2022-11-17T15:05:28.621Z,94.40
2022-11-17T15:07:59.228Z,94.40
2022-11-17T15:10:30.455Z,94.40
2022-11-17T15:13:00.994Z,94.40
2022-11-17T15:15:31.759Z,94.40
2022-11-17T15:18:02.931Z,94.50
2022-11-17T15:20:43.925Z,94.50
2022-11-17T15:23:20.231Z,94.40
2022-11-17T15:25:50.747Z,94.40
2022-11-17T15:28:23.080Z,94.40
2022-11-17T15:30:53.700Z,94.40
2022-11-17T15:33:24.247Z,94.30
2022-11-17T15:36:08.520Z,94.30
2022-11-17T15:38:47.331Z,94.30
2022-11-17T15:41:18.889Z,94.20
2022-11-17T15:43:49.646Z,94.20
2022-11-17T15:46:21.349Z,94.30
2022-11-17T15:48:56.716Z,94.20
2022-11-17T15:51:29.029Z,94.30
2022-11-17T15:54:01.475Z,94.20
2022-11-17T15:56:39.183Z,94.30
2022-11-17T15:59:30.690Z,94.20
2022-11-17T16:02:13.033Z,94.30
2022-11-17T16:04:44.814Z,94.30
2022-11-17T16:07:15.191Z,94.40
2022-11-17T16:09:49.148Z,94.30
2022-11-17T16:12:26.360Z,94.30
2022-11-17T16:14:56.893Z,94.30
2022-11-17T16:17:29.365Z,94.20
2022-11-17T16:20:02.987Z,94.30
2022-11-17T16:22:33.554Z,94.30
2022-11-17T16:25:05.332Z,94.30
2022-11-17T16:27:36.036Z,94.20
2022-11-17T16:30:08.360Z,94.10
2022-11-17T16:32:42.396Z,94.10
2022-11-17T16:35:14.696Z,94.20
2022-11-17T16:37:45.770Z,94.20
2022-11-17T16:40:16.940Z,94.10
2022-11-17T16:43:10.335Z,94.10
2022-11-17T16:45:47.287Z,94.00
2022-11-17T16:48:18.673Z,94.00
2022-11-17T16:50:51.475Z,94.00
2022-11-17T16:53:23.940Z,94.00
2022-11-17T16:56:14.559Z,94.00
2022-11-17T16:58:45.254Z,94.10
2022-11-17T17:01:18.405Z,94.00
2022-11-17T17:03:52.115Z,94.00
2022-11-17T17:06:22.959Z,94.10
2022-11-17T17:09:02.238Z,94.10
2022-11-17T17:11:34.623Z,94.10
2022-11-17T17:14:08.112Z,94.10
2022-11-17T17:16:39.360Z,94.00
2022-11-17T17:19:14.131Z,94.10
2022-11-17T17:21:50.588Z,94.00
2022-11-17T17:24:22.770Z,94.00
2022-11-17T17:26:53.637Z,94.00
2022-11-17T17:29:24.656Z,94.00
2022-11-17T17:31:57.390Z,93.90
2022-11-17T17:34:28.015Z,94.00
2022-11-17T17:36:58.439Z,93.90
2022-11-17T17:39:29.049Z,93.90
2022-11-17T17:41:59.759Z,93.90
2022-11-17T17:44:33.334Z,93.90
2022-11-17T17:47:04.778Z,93.90
2022-11-17T17:49:35.791Z,93.90
2022-11-17T17:52:12.438Z,93.90
2022-11-17T17:55:09.325Z,93.90
2022-11-17T17:58:01.435Z,93.90
2022-11-17T18:00:31.949Z,93.90
2022-11-17T18:03:03.101Z,93.90
2022-11-17T18:05:33.794Z,93.90
2022-11-17T18:08:06.207Z,93.90
2022-11-17T18:10:40.665Z,93.90
2022-11-17T18:13:11.325Z,94.00
2022-11-17T18:15:42.367Z,93.90
2022-11-17T18:18:13.375Z,93.90
2022-11-17T18:20:44.026Z,93.80
2022-11-17T18:23:14.616Z,93.90
2022-11-17T18:25:45.244Z,93.90
2022-11-17T18:28:16.026Z,93.90
2022-11-17T18:30:46.528Z,93.80
2022-11-17T18:36:10.262Z,93.80
2022-11-17T18:38:41.402Z,93.90
2022-11-17T18:41:15.360Z,93.70
2022-11-17T18:43:46.058Z,93.80
2022-11-17T18:46:19.773Z,93.70
2022-11-17T18:48:53.278Z,93.80
2022-11-17T18:54:28.432Z,93.70
2022-11-17T18:56:59.478Z,93.60
2022-11-17T18:59:30.413Z,93.90
2022-11-17T19:02:01.202Z,93.80
2022-11-17T19:04:31.637Z,93.80
2022-11-17T19:07:07.940Z,93.80
2022-11-17T19:09:38.992Z,93.70
2022-11-17T19:12:11.768Z,93.70
2022-11-17T19:14:42.647Z,93.70
2022-11-17T19:17:13.175Z,93.80
2022-11-17T19:19:44.008Z,93.70
2022-11-17T19:22:15.705Z,93.70
2022-11-17T19:24:46.962Z,93.70
2022-11-17T19:27:17.762Z,93.80
2022-11-17T19:29:48.516Z,93.70
2022-11-17T19:32:20.722Z,94.10
2022-11-17T19:34:51.935Z,93.70
2022-11-17T19:37:22.634Z,93.70
2022-11-17T19:39:53.218Z,93.60
2022-11-17T19:42:23.807Z,94.10
2022-11-17T19:44:54.580Z,93.70
2022-11-17T19:47:25.130Z,93.70
2022-11-17T19:50:15.599Z,94.00
2022-11-17T19:52:46.131Z,93.70
2022-11-17T19:55:16.998Z,93.70
2022-11-17T19:57:47.523Z,93.70
2022-11-17T20:00:18.650Z,93.60
2022-11-17T20:02:49.617Z,93.60
2022-11-17T20:05:20.160Z,93.70
2022-11-17T20:07:50.835Z,93.60
2022-11-17T20:10:22.538Z,93.60
2022-11-17T20:13:32.590Z,93.50
2022-11-17T20:16:08.792Z,93.60
2022-11-17T20:18:45.771Z,93.60
2022-11-17T20:21:15.649Z,93.60
2022-11-17T20:23:46.828Z,93.60
2022-11-17T20:26:20.361Z,93.60
2022-11-17T20:29:09.637Z,93.60
2022-11-17T20:31:40.164Z,93.50
2022-11-17T20:34:14.760Z,93.60
2022-11-17T20:39:28.870Z,93.60
2022-11-17T20:41:59.765Z,93.50
2022-11-17T20:44:30.596Z,93.60
2022-11-17T20:47:01.659Z,93.50
2022-11-17T20:49:32.361Z,93.40
2022-11-17T20:52:03.157Z,93.50
2022-11-17T20:57:17.304Z,93.50
2022-11-17T20:59:47.958Z,93.50
2022-11-17T21:02:18.905Z,93.50
2022-11-17T21:04:51.026Z,93.50
2022-11-17T21:07:21.907Z,93.50
2022-11-17T21:09:52.575Z,93.60
2022-11-17T21:12:23.054Z,93.50
2022-11-17T21:14:53.692Z,93.60
2022-11-17T21:17:42.613Z,93.40
2022-11-17T21:20:13.995Z,93.50
2022-11-17T21:22:47.461Z,93.40
2022-11-17T21:25:18.980Z,93.40
2022-11-17T21:28:10.059Z,93.50
2022-11-17T21:30:40.546Z,93.50
2022-11-17T21:33:11.077Z,93.40
2022-11-17T21:35:41.801Z,93.40
2022-11-17T21:38:12.432Z,93.40
2022-11-17T21:40:43.397Z,93.50
2022-11-17T21:43:14.075Z,93.40
2022-11-17T21:45:44.715Z,93.50
2022-11-17T21:48:15.325Z,93.40
2022-11-17T21:50:49.046Z,93.40
2022-11-17T21:53:19.680Z,93.40
2022-11-17T21:55:50.285Z,93.40
2022-11-17T21:58:20.864Z,93.50
2022-11-17T22:00:51.675Z,93.50
2022-11-17T22:03:22.612Z,93.50
2022-11-17T22:05:59.454Z,93.40
2022-11-17T22:08:32.730Z,93.40
2022-11-17T22:11:06.742Z,93.40
2022-11-17T22:13:59.178Z,93.40
2022-11-17T22:16:29.712Z,93.40
2022-11-17T22:19:00.559Z,93.50
2022-11-17T22:21:31.611Z,93.50
2022-11-17T22:24:02.364Z,93.40
2022-11-17T22:26:38.137Z,93.30
2022-11-17T22:29:12.427Z,93.40
2022-11-17T22:31:44.313Z,93.40
2022-11-17T22:34:16.739Z,93.40
2022-11-17T22:36:47.376Z,93.40
2022-11-17T22:39:19.834Z,93.40
2022-11-17T22:41:50.785Z,93.40
2022-11-17T22:44:21.587Z,93.40
2022-11-17T22:46:52.426Z,93.50
2022-11-17T22:49:23.269Z,93.50
2022-11-17T22:52:05.831Z,93.40
2022-11-17T22:54:36.913Z,93.30
2022-11-17T22:57:09.298Z,93.40
2022-11-17T22:59:40.241Z,93.30
2022-11-17T23:02:10.792Z,93.40
2022-11-17T23:04:41.862Z,93.40
2022-11-17T23:07:12.718Z,93.30
2022-11-17T23:09:43.992Z,93.40
2022-11-17T23:12:15.121Z,93.30
2022-11-17T23:14:45.655Z,93.30
2022-11-17T23:17:16.180Z,93.40
2022-11-17T23:19:47.005Z,93.40
2022-11-17T23:22:19.642Z,93.30
2022-11-17T23:24:55.511Z,93.40
2022-11-17T23:27:26.436Z,93.30
2022-11-17T23:29:57.398Z,93.40
2022-11-17T23:32:28.008Z,93.30
2022-11-17T23:34:58.548Z,93.40
2022-11-17T23:37:30.946Z,93.50
2022-11-17T23:40:01.602Z,93.30
2022-11-17T23:42:32.841Z,93.30
2022-11-17T23:45:03.978Z,93.40
2022-11-17T23:47:34.877Z,93.30
2022-11-17T23:50:06.356Z,93.40
2022-11-17T23:52:38.286Z,93.30
2022-11-17T23:55:09.773Z,93.40
2022-11-17T23:57:40.846Z,93.30
